Terminal Aerodrome Forecast
Issued by NWS Charleston, WV

Current Version | Previous Version | Text Only | Print | Product List | Glossary Off
Versions: 1 2 3 4 5 6 7 8 9 10 11 12 13 14 15 16 17 18 19 20 21 22 23 24 25

000
FTUS41 KRLX 261945 AAA
TAFHTS
TAF AMD
KHTS 261945Z 2620/2718 21009G16KT P6SM VCTS BKN040CB
     FM270000 19006KT 3SM TSRA BR BKN030CB BKN090
     FM270300 VRB03KT 4SM SHRA BR VCTS SCT001 BKN030CB
     FM270700 VRB03KT 4SM BR SCT001 BKN020
     FM271300 21005KT P6SM BKN020
     FM271600 22007KT P6SM VCTS BKN030CB=

USA.gov is the U.S. government's official web portal to all federal, state and local government web resources and services.